Time;durP1;ratioP1;P1;durP2;ratioP2;P2;SDS_P1;SDS_P2;PMS_P1;PMS_P2;Temp;Humidity;BMP_temperature;BMP_pressure;BME280_temperature;BME280_humidity;BME280_pressure;Samples;Min_cycle;Max_cycle;Signal;HPM_P1;HPM_P2
2022/08/13 00:00:36;;;;;;;9.23;8.40;;;20.50;99.90;;;;;;4965326;28;20440;-78
2022/08/13 00:03:13;;;;;;;9.00;7.73;;;20.40;99.90;;;;;;4975495;28;20853;-78
2022/08/13 00:06:02;;;;;;;9.77;8.90;;;20.30;99.90;;;;;;4974091;28;20544;-76
2022/08/13 00:08:32;;;;;;;10.23;8.30;;;20.30;99.90;;;;;;4975995;28;20677;-77
2022/08/13 00:10:59;;;;;;;9.27;8.47;;;20.20;99.90;;;;;;4971293;28;20471;-78
2022/08/13 00:13:27;;;;;;;9.87;8.97;;;20.10;99.90;;;;;;4976291;28;20497;-76
2022/08/13 00:16:10;;;;;;;9.27;7.80;;;20.10;99.90;;;;;;4971480;28;20718;-76
2022/08/13 00:18:38;;;;;;;9.17;8.30;;;20.10;99.90;;;;;;4980100;28;20412;-77
2022/08/13 00:21:07;;;;;;;9.80;8.50;;;20.10;99.90;;;;;;4970879;28;20439;-79
2022/08/13 00:23:37;;;;;;;10.47;9.50;;;20.10;99.90;;;;;;4978760;28;20413;-79
2022/08/13 00:26:26;;;;;;;8.07;7.37;;;20.00;99.90;;;;;;4975699;28;20411;-77
2022/08/13 00:29:01;;;;;;;9.53;8.50;;;20.10;99.90;;;;;;4973141;28;20437;-79
2022/08/13 00:31:30;;;;;;;9.70;8.70;;;20.00;99.90;;;;;;4984960;28;20412;-78
2022/08/13 00:33:59;;;;;;;10.70;9.63;;;19.90;99.90;;;;;;4986533;28;20458;-77
2022/08/13 00:36:35;;;;;;;9.63;8.47;;;20.00;99.90;;;;;;4981157;28;20422;-76
2022/08/13 00:39:05;;;;;;;8.80;7.90;;;20.10;99.90;;;;;;4987126;28;20776;-78
2022/08/13 00:41:37;;;;;;;9.10;8.20;;;20.00;99.90;;;;;;4981414;28;20437;-78
2022/08/13 00:44:25;;;;;;;9.87;9.00;;;19.80;99.90;;;;;;4984040;28;20480;-78
2022/08/13 00:48:41;;;;;;;9.93;9.03;;;19.90;99.90;;;;;;4981401;28;20412;-77
2022/08/13 00:49:47;;;;;;;8.47;7.67;;;19.90;99.90;;;;;;4972603;28;20778;-75
2022/08/13 00:52:30;;;;;;;8.80;8.00;;;19.90;99.90;;;;;;4975638;28;20470;-75
2022/08/13 00:55:00;;;;;;;9.03;8.13;;;19.90;99.90;;;;;;4979527;28;20427;-77
2022/08/13 00:57:29;;;;;;;8.90;7.37;;;19.80;99.90;;;;;;4982064;28;20452;-78
2022/08/13 00:59:56;;;;;;;8.63;7.57;;;19.90;99.90;;;;;;4984659;28;20418;-78
2022/08/13 01:02:26;;;;;;;8.53;7.30;;;20.00;99.90;;;;;;4985985;28;20448;-77
2022/08/13 01:05:00;;;;;;;9.63;8.07;;;20.00;99.90;;;;;;4985015;28;20932;-77
2022/08/13 01:07:30;;;;;;;8.47;7.57;;;20.00;99.90;;;;;;4982019;28;20458;-77
2022/08/13 01:10:19;;;;;;;8.57;7.67;;;20.00;99.90;;;;;;4968169;28;20750;-77
2022/08/13 01:12:50;;;;;;;8.80;7.70;;;20.10;99.90;;;;;;4978433;28;20757;-78
2022/08/13 01:15:19;;;;;;;9.00;8.10;;;20.10;99.90;;;;;;4966170;28;20451;-78
2022/08/13 01:17:47;;;;;;;10.00;7.70;;;20.20;99.90;;;;;;4972050;28;20424;-77
2022/08/13 01:20:20;;;;;;;8.40;6.87;;;20.20;99.90;;;;;;4978214;28;20475;-76
2022/08/13 01:23:04;;;;;;;9.30;8.27;;;20.20;99.90;;;;;;4977719;28;20549;-77
2022/08/13 01:25:34;;;;;;;7.23;6.53;;;20.30;99.90;;;;;;4967288;28;20767;-76
2022/08/13 01:28:22;;;;;;;9.30;8.30;;;20.20;99.90;;;;;;4978131;28;20412;-76
2022/08/13 01:30:51;;;;;;;8.40;7.60;;;20.20;99.90;;;;;;4966053;28;21689;-77
2022/08/13 01:33:19;;;;;;;7.63;7.03;;;20.20;99.90;;;;;;4979019;28;20476;-79
2022/08/13 01:35:48;;;;;;;8.07;7.27;;;20.10;99.90;;;;;;4973488;28;20738;-79
2022/08/13 01:38:22;;;;;;;9.03;8.13;;;20.20;99.90;;;;;;4979713;28;20416;-79
2022/08/13 01:40:53;;;;;;;8.80;8.00;;;20.20;99.90;;;;;;4977788;28;20422;-77
2022/08/13 01:43:21;;;;;;;8.13;7.40;;;20.30;99.90;;;;;;4990793;28;20446;-77
2022/08/13 01:45:51;;;;;;;8.17;7.47;;;20.30;99.90;;;;;;4978566;28;20464;-77
2022/08/13 01:51:32;;;;;;;8.57;7.77;;;20.20;99.90;;;;;;4969419;28;20423;-77
2022/08/13 01:54:11;;;;;;;14.13;7.50;;;20.30;99.90;;;;;;4974246;28;20762;-77
2022/08/13 01:57:04;;;;;;;7.63;6.93;;;20.30;99.90;;;;;;4968884;28;20755;-77
2022/08/13 01:59:34;;;;;;;7.73;7.03;;;20.30;99.90;;;;;;4972494;28;20589;-78
2022/08/13 02:02:23;;;;;;;8.80;8.00;;;20.30;99.90;;;;;;4976300;28;20755;-77
2022/08/13 02:05:12;;;;;;;8.50;7.70;;;20.30;99.90;;;;;;4974814;28;20570;-76
2022/08/13 02:08:00;;;;;;;8.80;8.00;;;20.40;99.90;;;;;;4971613;28;20415;-76
2022/08/13 02:10:35;;;;;;;8.37;7.43;;;20.40;99.90;;;;;;4973455;28;20811;-78
2022/08/13 02:13:08;;;;;;;8.33;7.53;;;20.30;99.90;;;;;;4984462;28;20953;-77
2022/08/13 02:15:36;;;;;;;9.53;7.40;;;20.40;99.90;;;;;;4971656;28;20421;-78
2022/08/13 02:18:26;;;;;;;10.63;9.63;;;20.30;99.90;;;;;;4974964;28;20421;-79
2022/08/13 02:20:58;;;;;;;10.67;8.87;;;20.30;99.90;;;;;;4969495;28;20469;-76
2022/08/13 02:23:32;;;;;;;8.80;8.00;;;19.90;99.90;;;;;;4971336;28;20415;-74
2022/08/13 02:26:23;;;;;;;8.30;7.50;;;19.50;99.90;;;;;;4966549;28;20475;-79
2022/08/13 02:28:59;;;;;;;8.90;8.10;;;19.00;99.90;;;;;;4975702;28;20605;-76
2022/08/13 02:31:28;;;;;;;9.43;8.53;;;18.80;99.90;;;;;;4976749;28;20440;-78
2022/08/13 02:34:16;;;;;;;10.80;8.77;;;18.60;99.90;;;;;;4975926;28;20459;-76
2022/08/13 02:36:49;;;;;;;10.83;9.50;;;18.60;99.90;;;;;;4975069;28;20501;-79
2022/08/13 02:39:36;;;;;;;10.40;8.73;;;18.60;99.90;;;;;;4970128;28;20415;-79
2022/08/13 02:42:10;;;;;;;10.27;9.23;;;18.50;99.90;;;;;;4977447;28;20655;-79
2022/08/13 02:44:47;;;;;;;10.10;9.07;;;18.60;99.90;;;;;;4974388;28;20483;-79
2022/08/13 02:47:19;;;;;;;10.30;9.27;;;18.80;99.90;;;;;;4969822;28;20439;-78
2022/08/13 02:49:59;;;;;;;10.27;9.23;;;18.80;99.90;;;;;;4972061;28;20448;-79
2022/08/13 02:52:29;;;;;;;12.57;11.27;;;18.90;99.90;;;;;;4976047;28;20423;-79
2022/08/13 02:54:57;;;;;;;9.53;8.73;;;18.90;99.90;;;;;;4972973;28;20423;-79
2022/08/13 02:57:24;;;;;;;12.13;9.80;;;19.10;99.90;;;;;;4975548;28;20470;-79
2022/08/13 02:59:54;;;;;;;11.93;10.43;;;19.10;99.90;;;;;;4966730;28;20533;-80
2022/08/13 03:02:31;;;;;;;12.50;11.20;;;19.30;99.90;;;;;;4966807;28;20496;-78
2022/08/13 03:05:01;;;;;;;10.93;9.73;;;19.10;99.90;;;;;;4970971;28;20480;-80
2022/08/13 03:07:29;;;;;;;12.47;10.30;;;19.00;99.90;;;;;;4978021;28;20536;-80
2022/08/13 03:10:18;;;;;;;10.63;9.57;;;19.10;99.90;;;;;;4974003;28;20432;-80
2022/08/13 03:13:15;;;;;;;14.17;10.70;;;19.00;99.90;;;;;;4975238;28;20964;-79
2022/08/13 03:15:50;;;;;;;10.33;9.40;;;18.90;99.90;;;;;;4971484;28;20474;-77
2022/08/13 03:18:29;;;;;;;11.77;10.30;;;19.00;99.90;;;;;;4970002;28;20420;-78
2022/08/13 03:21:18;;;;;;;10.97;9.10;;;18.80;99.90;;;;;;4971654;28;20473;-78
2022/08/13 03:24:09;;;;;;;12.17;9.97;;;18.90;99.90;;;;;;4977037;28;20404;-79
2022/08/13 03:26:38;;;;;;;12.10;10.90;;;18.80;99.90;;;;;;4973283;28;20517;-80
2022/08/13 03:29:06;;;;;;;10.13;9.13;;;18.70;99.90;;;;;;4971435;28;20418;-78
2022/08/13 03:31:35;;;;;;;8.50;7.70;;;18.70;99.90;;;;;;4974685;28;20787;-76
2022/08/13 03:34:22;;;;;;;11.87;10.30;;;18.70;99.90;;;;;;4977241;28;20453;-76
2022/08/13 03:36:49;;;;;;;12.63;10.83;;;18.60;99.90;;;;;;4968497;28;20452;-79
2022/08/13 03:39:16;;;;;;;10.80;9.80;;;18.50;99.90;;;;;;4976642;28;20460;-74
2022/08/13 03:41:44;;;;;;;11.60;10.40;;;18.60;99.90;;;;;;4977304;28;20693;-77
2022/08/13 03:44:18;;;;;;;10.20;9.20;;;18.70;99.90;;;;;;4991756;28;20436;-77
2022/08/13 03:46:47;;;;;;;11.30;10.20;;;18.80;99.90;;;;;;4982578;28;20840;-78
2022/08/13 03:49:19;;;;;;;11.60;10.50;;;18.80;99.90;;;;;;4974170;28;20675;-77
2022/08/13 03:51:46;;;;;;;10.00;9.07;;;18.70;99.90;;;;;;4980160;28;20515;-77
2022/08/13 03:54:14;;;;;;;11.33;10.23;;;18.70;99.90;;;;;;4968837;28;20888;-77
2022/08/13 03:56:45;;;;;;;11.13;10.07;;;18.80;99.90;;;;;;4978644;28;20477;-78
2022/08/13 03:59:27;;;;;;;12.30;11.10;;;18.90;99.90;;;;;;4977544;28;20466;-78
2022/08/13 04:02:15;;;;;;;11.27;10.23;;;19.00;99.90;;;;;;4973312;28;20600;-78
2022/08/13 04:04:50;;;;;;;12.00;10.80;;;19.10;99.90;;;;;;4981153;28;20473;-77
2022/08/13 04:07:22;;;;;;;11.37;10.33;;;19.10;99.90;;;;;;4976010;28;20461;-79
2022/08/13 04:09:54;;;;;;;10.63;9.63;;;19.20;99.90;;;;;;4978849;28;20425;-79
2022/08/13 04:12:22;;;;;;;14.37;12.00;;;19.10;99.90;;;;;;4981639;28;20449;-78
2022/08/13 04:14:50;;;;;;;11.93;10.73;;;19.10;99.90;;;;;;4973478;28;20459;-77
2022/08/13 04:17:28;;;;;;;12.03;10.60;;;19.10;99.90;;;;;;4972682;28;20412;-79
2022/08/13 04:19:57;;;;;;;12.80;10.90;;;19.10;99.90;;;;;;4975970;28;20630;-78
2022/08/13 04:22:27;;;;;;;10.67;9.63;;;19.20;99.90;;;;;;4975757;28;20458;-79
2022/08/13 04:24:55;;;;;;;10.87;9.77;;;19.30;99.90;;;;;;4980065;28;20494;-78
2022/08/13 04:27:22;;;;;;;11.33;9.67;;;19.30;99.90;;;;;;4981587;28;20779;-78
2022/08/13 04:29:51;;;;;;;10.87;9.77;;;19.50;99.90;;;;;;4973478;28;20452;-78
2022/08/13 04:32:19;;;;;;;11.73;10.53;;;19.50;99.90;;;;;;4973596;28;20454;-78
2022/08/13 04:34:52;;;;;;;11.37;10.27;;;19.50;99.90;;;;;;4987215;28;20763;-77
2022/08/13 04:37:26;;;;;;;10.33;9.33;;;19.40;99.90;;;;;;4975187;28;20523;-77
2022/08/13 04:40:13;;;;;;;10.17;9.20;;;19.20;99.90;;;;;;4977490;28;20445;-80
2022/08/13 04:42:56;;;;;;;10.33;9.23;;;19.20;99.90;;;;;;4974891;28;20411;-79
2022/08/13 04:45:25;;;;;;;12.37;10.77;;;19.40;99.90;;;;;;4981411;28;20456;-80
2022/08/13 04:47:58;;;;;;;10.70;9.70;;;19.40;99.90;;;;;;4979846;28;20412;-78
2022/08/13 04:50:34;;;;;;;10.53;9.30;;;19.30;99.90;;;;;;4980049;28;20621;-79
2022/08/13 04:53:05;;;;;;;9.63;8.60;;;19.20;99.90;;;;;;4980604;28;20481;-79
2022/08/13 04:55:34;;;;;;;9.33;8.40;;;19.20;99.90;;;;;;4975983;28;20824;-78
2022/08/13 04:58:23;;;;;;;9.50;8.60;;;19.10;99.90;;;;;;4971435;28;20515;-79
2022/08/13 05:00:52;;;;;;;8.73;7.83;;;19.20;99.90;;;;;;4966885;28;20451;-79
2022/08/13 05:03:21;;;;;;;9.50;8.50;;;19.30;99.90;;;;;;4978475;28;20935;-77
2022/08/13 05:05:59;;;;;;;9.23;8.43;;;19.00;99.90;;;;;;4979658;28;20462;-78
2022/08/13 05:08:27;;;;;;;10.20;9.10;;;19.00;99.90;;;;;;4980059;28;20430;-78
2022/08/13 05:10:54;;;;;;;10.37;9.37;;;18.80;99.90;;;;;;4980100;28;20594;-78
2022/08/13 05:13:29;;;;;;;14.20;11.47;;;18.80;99.90;;;;;;4979435;28;20448;-78
2022/08/13 05:16:11;;;;;;;11.63;9.97;;;18.70;99.90;;;;;;4979826;28;20451;-76
2022/08/13 05:18:42;;;;;;;10.43;9.30;;;18.60;99.90;;;;;;4977383;28;20516;-78
2022/08/13 05:21:12;;;;;;;11.07;9.97;;;18.80;99.90;;;;;;4971662;28;20481;-77
2022/08/13 05:23:44;;;;;;;13.43;11.70;;;18.70;99.90;;;;;;4970632;28;20448;-78
2022/08/13 05:26:31;;;;;;;13.77;12.37;;;18.70;99.90;;;;;;4979522;28;20518;-78
2022/08/13 05:29:19;;;;;;;15.90;13.10;;;18.60;99.90;;;;;;4973528;28;20438;-80
2022/08/13 05:31:46;;;;;;;13.10;11.73;;;18.70;99.90;;;;;;4976057;28;20415;-80
2022/08/13 05:34:28;;;;;;;15.17;13.20;;;18.70;99.90;;;;;;4977423;28;20589;-78
2022/08/13 05:36:58;;;;;;;14.17;12.80;;;18.80;99.90;;;;;;4973864;28;20507;-79
2022/08/13 05:39:46;;;;;;;13.17;11.77;;;18.80;99.90;;;;;;4968150;28;20439;-78
2022/08/13 05:42:18;;;;;;;11.00;10.00;;;18.70;99.90;;;;;;4984420;28;20566;-78
2022/08/13 05:44:59;;;;;;;12.97;11.67;;;18.70;99.90;;;;;;4982478;28;20510;-77
2022/08/13 05:47:27;;;;;;;15.10;13.03;;;18.70;99.90;;;;;;4987448;28;20438;-78
2022/08/13 05:50:13;;;;;;;12.37;11.17;;;18.60;99.90;;;;;;5004055;28;20443;-79
2022/08/13 05:52:43;;;;;;;16.47;14.37;;;18.60;99.90;;;;;;4985491;28;20515;-76
2022/08/13 05:55:24;;;;;;;19.27;13.83;;;18.60;99.90;;;;;;4983032;28;20436;-77
2022/08/13 05:58:12;;;;;;;15.43;13.83;;;18.60;99.90;;;;;;4976449;28;20767;-77
2022/08/13 06:03:39;;;;;;;16.03;13.83;;;18.60;99.90;;;;;;4973931;28;20448;-78
2022/08/13 06:06:28;;;;;;;16.17;13.40;;;18.70;99.90;;;;;;4972970;28;20716;-76
2022/08/13 06:09:03;;;;;;;15.90;13.50;;;18.70;99.90;;;;;;4981245;28;20804;-77
2022/08/13 06:11:40;;;;;;;15.90;13.23;;;18.80;99.90;;;;;;4974322;28;20454;-79
2022/08/13 06:14:33;;;;;;;16.20;13.43;;;18.80;99.90;;;;;;4976278;28;20463;-79
2022/08/13 06:17:05;;;;;;;15.57;13.80;;;18.70;99.90;;;;;;4976646;28;20462;-77
2022/08/13 06:19:43;;;;;;;14.37;12.97;;;18.80;99.90;;;;;;4985186;28;20467;-78
2022/08/13 06:22:19;;;;;;;15.43;13.57;;;18.90;99.90;;;;;;4982799;28;20480;-79
2022/08/13 06:24:47;;;;;;;19.97;14.27;;;18.90;99.90;;;;;;4985286;28;20461;-79
2022/08/13 06:27:24;;;;;;;16.20;13.70;;;18.90;99.90;;;;;;4976889;28;20526;-79
2022/08/13 06:30:17;;;;;;;15.87;14.20;;;18.90;99.90;;;;;;4973031;28;20440;-79
2022/08/13 06:33:01;;;;;;;16.53;14.83;;;19.00;99.90;;;;;;4978759;28;20418;-80
2022/08/13 06:35:49;;;;;;;19.00;15.83;;;19.10;99.90;;;;;;4971320;28;20503;-79
2022/08/13 06:38:32;;;;;;;18.43;15.20;;;19.00;99.90;;;;;;4981955;28;20470;-79
2022/08/13 06:41:02;;;;;;;16.33;14.70;;;18.90;99.90;;;;;;4982595;28;20441;-79
2022/08/13 06:43:40;;;;;;;18.93;15.00;;;19.00;99.90;;;;;;4971442;28;20453;-78
2022/08/13 06:46:28;;;;;;;17.80;15.97;;;19.10;99.90;;;;;;4974236;28;20455;-78
2022/08/13 06:48:57;;;;;;;18.10;16.10;;;19.10;99.90;;;;;;4972163;28;20444;-78
2022/08/13 06:51:28;;;;;;;21.53;16.97;;;19.10;99.90;;;;;;4978038;28;20444;-80
2022/08/13 06:54:02;;;;;;;16.07;14.30;;;19.30;99.90;;;;;;4992624;28;20445;-78
2022/08/13 06:56:49;;;;;;;21.53;16.97;;;19.20;99.90;;;;;;4966619;28;20441;-78
2022/08/13 06:59:39;;;;;;;18.87;16.67;;;19.30;99.90;;;;;;4981924;28;20422;-79
2022/08/13 07:02:28;;;;;;;17.90;15.03;;;19.20;99.90;;;;;;4975943;28;20414;-77
2022/08/13 07:04:58;;;;;;;17.93;16.00;;;19.30;99.90;;;;;;4972032;28;20427;-78
2022/08/13 07:07:26;;;;;;;21.57;16.53;;;19.30;99.90;;;;;;4970135;28;20552;-78
2022/08/13 07:09:54;;;;;;;23.47;16.20;;;19.30;99.90;;;;;;4966161;28;20856;-77
2022/08/13 07:12:24;;;;;;;20.47;16.83;;;19.30;99.90;;;;;;4970970;28;20615;-78
2022/08/13 07:14:51;;;;;;;20.37;16.60;;;19.30;99.90;;;;;;4970810;28;20448;-78
2022/08/13 07:17:28;;;;;;;22.60;17.47;;;19.30;99.90;;;;;;4973586;28;20457;-80
2022/08/13 07:19:59;;;;;;;18.87;16.30;;;19.50;99.90;;;;;;4977785;28;20675;-79
2022/08/13 07:22:34;;;;;;;21.57;16.23;;;19.70;99.90;;;;;;4972282;28;20515;-78
2022/08/13 07:25:23;;;;;;;19.40;16.17;;;20.00;99.90;;;;;;4969700;28;20691;-80
2022/08/13 07:28:17;;;;;;;20.00;16.30;;;20.10;99.90;;;;;;4981005;28;20451;-79
2022/08/13 07:31:06;;;;;;;17.63;15.33;;;20.30;99.90;;;;;;4979548;28;20737;-80
2022/08/13 07:33:39;;;;;;;19.77;15.87;;;20.50;99.90;;;;;;4980886;28;20419;-80
2022/08/13 07:36:25;;;;;;;16.67;14.10;;;20.50;99.90;;;;;;4976801;28;20415;-78
2022/08/13 07:38:52;;;;;;;16.67;14.90;;;20.50;99.90;;;;;;4978325;28;20418;-79
2022/08/13 07:41:20;;;;;;;17.90;15.40;;;20.40;99.90;;;;;;4983289;28;20455;-79
2022/08/13 07:43:48;;;;;;;19.23;15.50;;;20.30;99.90;;;;;;4974753;28;20420;-77
2022/08/13 07:46:34;;;;;;;20.83;14.80;;;20.40;99.90;;;;;;4971861;28;20739;-80
2022/08/13 07:49:08;;;;;;;17.33;15.57;;;20.80;99.90;;;;;;4970048;28;20448;-79
2022/08/13 07:52:10;;;;;;;16.13;13.83;;;20.90;99.90;;;;;;4978781;28;20609;-77
2022/08/13 07:54:38;;;;;;;15.80;13.63;;;20.90;99.90;;;;;;4978774;28;20517;-79
2022/08/13 07:57:06;;;;;;;18.13;14.90;;;20.80;99.90;;;;;;4983863;28;20502;-79
2022/08/13 07:59:32;;;;;;;17.43;15.50;;;20.90;99.90;;;;;;4982628;28;20407;-81
2022/08/13 08:02:18;;;;;;;16.03;13.70;;;20.80;99.90;;;;;;4986943;28;20428;-77
2022/08/13 08:04:50;;;;;;;17.17;13.87;;;20.90;99.90;;;;;;4976655;28;20481;-79
2022/08/13 08:07:22;;;;;;;16.10;14.50;;;21.10;99.90;;;;;;4987652;28;20451;-79
2022/08/13 08:09:52;;;;;;;16.13;14.10;;;21.10;99.90;;;;;;4985169;28;20698;-80
2022/08/13 08:12:33;;;;;;;19.20;16.63;;;21.10;99.90;;;;;;4993615;28;20415;-79
2022/08/13 08:15:22;;;;;;;15.20;13.70;;;21.00;99.90;;;;;;4979875;28;20419;-77
2022/08/13 08:18:10;;;;;;;16.40;14.67;;;20.80;99.90;;;;;;4973156;28;20443;-79
2022/08/13 08:21:08;;;;;;;16.03;14.10;;;20.70;99.90;;;;;;4979405;28;20419;-81
2022/08/13 08:23:59;;;;;;;18.13;16.33;;;20.50;99.90;;;;;;4973199;28;20440;-78
2022/08/13 08:26:30;;;;;;;17.90;15.57;;;20.20;99.90;;;;;;4979599;28;20562;-79
2022/08/13 08:28:59;;;;;;;17.23;15.37;;;20.00;99.90;;;;;;4989167;28;20464;-77
2022/08/13 08:31:27;;;;;;;18.77;16.43;;;19.70;99.90;;;;;;4986551;28;20921;-78
2022/08/13 08:34:17;;;;;;;21.30;17.43;;;19.60;99.90;;;;;;4980398;28;20433;-79
2022/08/13 08:36:45;;;;;;;19.00;17.00;;;19.60;99.90;;;;;;4975285;28;20623;-80
2022/08/13 08:45:08;;;;;;;19.97;17.53;;;19.60;99.90;;;;;;4971333;28;20436;-81
2022/08/13 08:47:42;;;;;;;18.73;15.93;;;19.70;99.90;;;;;;4977207;28;20513;-79
2022/08/13 08:50:26;;;;;;;22.73;17.83;;;19.70;99.90;;;;;;4976726;28;20414;-81
2022/08/13 08:56:22;;;;;;;20.07;17.90;;;19.80;99.90;;;;;;4919513;29;20463;-79
2022/08/13 08:58:55;;;;;;;20.60;18.47;;;19.90;99.90;;;;;;4974503;28;20451;-79
2022/08/13 09:01:25;;;;;;;23.43;19.33;;;19.70;99.90;;;;;;4983216;28;20412;-81
2022/08/13 09:03:56;;;;;;;21.23;16.87;;;19.70;99.90;;;;;;4984101;28;20446;-83
2022/08/13 09:06:31;;;;;;;20.53;18.10;;;19.60;99.90;;;;;;4979441;28;20484;-82
2022/08/13 09:09:20;;;;;;;24.63;18.90;;;19.70;99.90;;;;;;4979526;28;20439;-80
2022/08/13 09:11:52;;;;;;;22.70;19.67;;;19.70;99.90;;;;;;4982504;28;20688;-80
2022/08/13 09:14:32;;;;;;;23.53;19.10;;;19.90;99.90;;;;;;4979482;28;20567;-80
2022/08/13 09:17:02;;;;;;;22.13;18.63;;;19.80;99.90;;;;;;4967581;28;20443;-82
2022/08/13 09:19:30;;;;;;;27.13;17.67;;;19.80;99.90;;;;;;4977807;28;20511;-79
2022/08/13 09:22:22;;;;;;;25.60;21.23;;;20.10;99.90;;;;;;4966849;28;20457;-79
2022/08/13 09:24:53;;;;;;;26.23;20.23;;;20.30;99.90;;;;;;4976034;28;20525;-79
2022/08/13 09:27:21;;;;;;;19.83;17.83;;;20.40;99.90;;;;;;4993259;28;20464;-78
2022/08/13 09:29:50;;;;;;;22.30;19.67;;;20.60;99.90;;;;;;4977461;28;20424;-79
2022/08/13 09:32:28;;;;;;;24.30;20.67;;;20.90;99.90;;;;;;4974096;28;20419;-78
2022/08/13 09:35:03;;;;;;;21.07;18.87;;;20.90;99.90;;;;;;4970801;28;20654;-78
2022/08/13 09:37:31;;;;;;;24.87;21.73;;;20.80;99.90;;;;;;4990052;28;20415;-78
2022/08/13 09:40:22;;;;;;;21.83;19.50;;;21.10;99.90;;;;;;4979019;28;20747;-77
2022/08/13 09:43:38;;;;;;;27.37;21.80;;;21.60;99.90;;;;;;4971797;28;20686;-79
2022/08/13 09:46:15;;;;;;;21.63;19.43;;;21.80;99.90;;;;;;4973463;28;20478;-78
2022/08/13 09:48:46;;;;;;;18.77;16.77;;;21.60;99.90;;;;;;4975892;28;20432;-77
2022/08/13 09:51:14;;;;;;;19.50;17.40;;;21.30;99.90;;;;;;4971185;28;20447;-80
2022/08/13 09:54:05;;;;;;;16.23;14.53;;;21.60;99.90;;;;;;4977166;28;20449;-79
2022/08/13 09:56:38;;;;;;;18.63;16.30;;;21.60;99.90;;;;;;4971410;28;20460;-78
2022/08/13 09:59:10;;;;;;;18.50;14.33;;;21.60;99.90;;;;;;4975522;28;20511;-80
2022/08/13 10:01:57;;;;;;;14.97;13.47;;;21.50;99.90;;;;;;4983376;28;20427;-79
2022/08/13 10:04:26;;;;;;;15.63;13.53;;;21.50;99.90;;;;;;4984655;28;20577;-78
2022/08/13 10:06:58;;;;;;;15.70;13.73;;;21.30;99.90;;;;;;4983982;28;20514;-81
2022/08/13 10:09:27;;;;;;;16.50;14.90;;;21.20;99.90;;;;;;4973569;28;20772;-80
2022/08/13 10:11:58;;;;;;;18.60;16.53;;;21.40;99.90;;;;;;4971169;28;20429;-79
2022/08/13 10:14:45;;;;;;;16.60;15.00;;;22.20;99.90;;;;;;4977048;28;20414;-80
2022/08/13 10:17:23;;;;;;;15.90;14.37;;;22.90;99.90;;;;;;4974308;28;20508;-80
2022/08/13 10:20:11;;;;;;;15.30;13.70;;;23.20;99.90;;;;;;4976545;28;20805;-80
2022/08/13 10:22:42;;;;;;;14.10;12.90;;;23.60;99.90;;;;;;4967983;28;20441;-80
2022/08/13 10:25:10;;;;;;;13.70;12.43;;;23.70;99.90;;;;;;4977733;28;20432;-80
2022/08/13 10:27:37;;;;;;;14.57;13.17;;;24.10;99.90;;;;;;4972873;28;20701;-79
2022/08/13 10:30:21;;;;;;;16.43;14.87;;;24.10;99.90;;;;;;4976487;28;20553;-78
2022/08/13 10:33:12;;;;;;;15.93;14.10;;;24.20;99.90;;;;;;4975561;28;20410;-78
2022/08/13 10:35:40;;;;;;;15.60;14.20;;;24.10;99.90;;;;;;4981982;28;20423;-80
2022/08/13 10:38:16;;;;;;;13.17;11.90;;;23.60;99.90;;;;;;4974536;28;20530;-79
2022/08/13 10:40:45;;;;;;;14.73;13.40;;;23.60;99.90;;;;;;4970335;28;20444;-78
2022/08/13 10:43:13;;;;;;;17.30;14.63;;;24.00;99.90;;;;;;4971260;28;20446;-80
2022/08/13 10:45:50;;;;;;;14.80;13.37;;;23.60;99.90;;;;;;4962738;28;20455;-79
2022/08/13 10:48:17;;;;;;;14.67;13.27;;;23.40;99.90;;;;;;4966144;28;20829;-80
2022/08/13 10:50:45;;;;;;;13.93;12.57;;;23.40;99.90;;;;;;4973567;28;20514;-80
2022/08/13 10:56:10;;;;;;;12.40;11.20;;;24.00;99.90;;;;;;4994960;28;20430;-77
2022/08/13 10:58:39;;;;;;;14.37;13.10;;;24.60;99.90;;;;;;4995593;28;20487;-79
2022/08/13 11:01:16;;;;;;;12.03;11.00;;;25.00;99.90;;;;;;4992248;28;20436;-78
2022/08/13 11:03:44;;;;;;;11.13;10.13;;;25.10;99.90;;;;;;4980856;28;20443;-79
2022/08/13 11:06:15;;;;;;;12.23;11.03;;;24.90;99.90;;;;;;4975880;28;20444;-79
2022/08/13 11:08:44;;;;;;;12.23;11.17;;;24.90;99.90;;;;;;4976344;28;20511;-80
2022/08/13 11:11:15;;;;;;;12.57;11.43;;;24.30;99.90;;;;;;4981069;28;20456;-79
2022/08/13 11:14:02;;;;;;;10.43;9.47;;;24.40;99.90;;;;;;4968479;28;20422;-77
2022/08/13 11:19:01;;;;;;;12.60;11.50;;;24.90;99.90;;;;;;4965798;28;20499;-77
2022/08/13 11:21:30;;;;;;;12.63;11.53;;;24.60;99.90;;;;;;4972084;28;20542;-77
2022/08/13 11:24:18;;;;;;;10.77;9.77;;;24.10;99.90;;;;;;4970275;28;20752;-81
2022/08/13 11:26:47;;;;;;;13.17;11.87;;;23.40;99.90;;;;;;4972909;28;20488;-78
2022/08/13 11:29:15;;;;;;;12.80;11.70;;;23.70;99.90;;;;;;4972152;28;20512;-81
2022/08/13 11:31:42;;;;;;;12.10;10.50;;;23.80;99.90;;;;;;4964245;28;20457;-79
2022/08/13 11:34:26;;;;;;;11.53;9.70;;;24.10;99.90;;;;;;4963818;28;20918;-81
2022/08/13 11:36:53;;;;;;;12.50;10.97;;;23.60;99.90;;;;;;4964072;28;20470;-79
2022/08/13 11:39:20;;;;;;;11.73;10.53;;;23.30;99.90;;;;;;4964247;28;20473;-80
2022/08/13 11:42:04;;;;;;;11.23;10.03;;;23.50;99.90;;;;;;4962555;28;20423;-80
2022/08/13 11:44:32;;;;;;;12.77;11.17;;;23.90;99.90;;;;;;4964073;28;20509;-79
2022/08/13 11:46:59;;;;;;;12.80;9.83;;;24.00;99.90;;;;;;4963553;28;20568;-78
2022/08/13 11:49:44;;;;;;;13.80;11.93;;;23.40;99.90;;;;;;4966971;28;20443;-78
2022/08/13 11:52:17;;;;;;;13.20;11.00;;;23.20;99.90;;;;;;4965916;28;20477;-79
2022/08/13 11:54:54;;;;;;;12.20;11.00;;;23.20;99.90;;;;;;4958378;28;20467;-79
2022/08/13 11:57:22;;;;;;;12.03;10.90;;;23.60;99.90;;;;;;4962650;28;20428;-79
2022/08/13 11:59:49;;;;;;;10.83;9.93;;;23.90;99.90;;;;;;4961935;28;20490;-78
2022/08/13 12:02:24;;;;;;;11.67;10.60;;;23.80;99.90;;;;;;4962298;28;20422;-78
2022/08/13 12:04:58;;;;;;;12.00;11.00;;;24.30;99.90;;;;;;4964323;28;20510;-80
2022/08/13 12:07:26;;;;;;;12.67;11.57;;;24.80;99.90;;;;;;4962942;28;20452;-78
2022/08/13 12:09:56;;;;;;;10.87;9.87;;;25.30;99.90;;;;;;4967266;28;20436;-81
2022/08/13 12:12:25;;;;;;;11.33;10.33;;;25.40;99.90;;;;;;4965286;28;20772;-80
2022/08/13 12:14:57;;;;;;;11.80;10.70;;;25.70;99.90;;;;;;4965776;28;20760;-79
2022/08/13 12:17:27;;;;;;;12.50;11.33;;;26.20;99.90;;;;;;4966237;28;20499;-78
2022/08/13 12:20:18;;;;;;;11.07;9.97;;;26.10;99.90;;;;;;4969080;28;20647;-77
2022/08/13 12:22:56;;;;;;;12.20;11.07;;;25.80;99.90;;;;;;4969789;28;20483;-79
2022/08/13 12:25:27;;;;;;;10.63;9.67;;;25.50;99.90;;;;;;4969987;28;20433;-81
2022/08/13 12:28:20;;;;;;;11.33;10.20;;;26.00;99.90;;;;;;4969083;28;20443;-79
2022/08/13 12:30:57;;;;;;;10.97;9.97;;;26.30;99.90;;;;;;4969736;28;20443;-81
2022/08/13 12:33:29;;;;;;;11.97;10.87;;;26.20;99.90;;;;;;4968055;28;20454;-79
2022/08/13 12:36:08;;;;;;;14.37;10.00;;;26.40;99.90;;;;;;4972996;28;20478;-80
2022/08/13 12:38:46;;;;;;;11.00;10.00;;;26.90;99.90;;;;;;4976200;28;20583;-80
2022/08/13 12:41:32;;;;;;;13.97;11.90;;;27.40;99.90;;;;;;4968008;28;20512;-80
2022/08/13 12:44:12;;;;;;;11.87;10.70;;;27.10;99.90;;;;;;4971652;28;20469;-81
2022/08/13 12:47:00;;;;;;;10.60;9.57;;;26.50;99.90;;;;;;4970884;28;20478;-79
2022/08/13 12:49:30;;;;;;;11.60;10.50;;;26.20;99.90;;;;;;4968812;28;20508;-81
2022/08/13 12:52:16;;;;;;;10.30;9.20;;;26.20;99.90;;;;;;4970098;28;20442;-81
2022/08/13 12:54:48;;;;;;;12.60;10.00;;;26.30;99.90;;;;;;4971379;28;20443;-78
2022/08/13 12:57:34;;;;;;;12.10;10.90;;;26.30;99.90;;;;;;4970845;28;20515;-77
2022/08/13 13:00:21;;;;;;;12.20;11.10;;;26.20;99.90;;;;;;4964965;28;20433;-78
2022/08/13 13:02:57;;;;;;;15.60;11.40;;;25.90;99.90;;;;;;4966574;28;20441;-78
2022/08/13 13:05:29;;;;;;;13.90;12.60;;;25.70;99.90;;;;;;4973487;28;20455;-79
2022/08/13 13:08:17;;;;;;;12.60;11.53;;;25.80;99.90;;;;;;4972430;28;20468;-82
2022/08/13 13:11:12;;;;;;;13.60;12.23;;;25.80;99.90;;;;;;4967405;28;20407;-77
2022/08/13 13:13:44;;;;;;;14.23;12.67;;;25.60;99.90;;;;;;4977841;28;20426;-81
2022/08/13 13:16:27;;;;;;;13.30;11.90;;;25.60;99.90;;;;;;4986225;28;20446;-79
2022/08/13 13:19:05;;;;;;;12.57;11.47;;;25.70;99.90;;;;;;4983475;28;20508;-80
2022/08/13 13:21:40;;;;;;;13.13;11.93;;;25.80;99.90;;;;;;4979774;28;20741;-80
2022/08/13 13:24:13;;;;;;;14.47;13.00;;;25.70;99.90;;;;;;4964749;28;20448;-79
2022/08/13 13:26:49;;;;;;;13.57;12.37;;;25.70;99.90;;;;;;4975605;28;20433;-80
2022/08/13 13:29:22;;;;;;;13.80;12.53;;;25.80;99.90;;;;;;4975281;28;20760;-80
2022/08/13 13:31:50;;;;;;;13.43;12.20;;;25.80;99.90;;;;;;4966576;28;20431;-82
2022/08/13 13:34:37;;;;;;;13.50;12.23;;;25.90;99.90;;;;;;4969024;28;20591;-80
2022/08/13 13:37:06;;;;;;;15.43;13.93;;;26.10;99.90;;;;;;4971233;28;20531;-81